createdAt,value
2023-03-21T00:00:42.487Z,43.08
2023-03-21T00:03:09.225Z,42.98
2023-03-21T00:05:45.773Z,43.36
2023-03-21T00:08:12.494Z,43.38
2023-03-21T00:10:43.641Z,44.24
2023-03-21T00:13:15.745Z,44.10
2023-03-21T00:16:08.609Z,43.62
2023-03-21T00:18:42.355Z,44.45
2023-03-21T00:24:00.896Z,44.50
2023-03-21T00:26:27.806Z,44.34
2023-03-21T00:28:54.540Z,44.12
2023-03-21T00:31:21.204Z,44.44
2023-03-21T00:33:48.246Z,44.68
2023-03-21T00:36:15.990Z,44.91
2023-03-21T00:38:43.151Z,45.05
2023-03-21T00:41:23.424Z,45.15
2023-03-21T00:43:58.469Z,44.94
2023-03-21T00:46:30.094Z,45.57
2023-03-21T00:49:02.965Z,45.58
2023-03-21T00:51:30.567Z,45.38
2023-03-21T00:53:58.740Z,45.30
2023-03-21T00:56:25.311Z,45.42
2023-03-21T00:58:51.922Z,45.86
2023-03-21T01:01:18.753Z,45.98
2023-03-21T01:03:51.045Z,46.31
2023-03-21T01:06:19.714Z,45.79
2023-03-21T01:08:53.262Z,45.86
2023-03-21T01:11:26.178Z,46.12
2023-03-21T01:14:21.380Z,45.72
2023-03-21T01:16:41.281Z,46.20
2023-03-21T01:19:22.157Z,46.30
2023-03-21T01:21:51.494Z,46.51
2023-03-21T01:24:18.065Z,47.00
2023-03-21T01:26:44.664Z,46.94
2023-03-21T01:29:11.636Z,46.87
2023-03-21T01:31:38.404Z,46.62
2023-03-21T01:34:05.049Z,46.43
2023-03-21T01:36:31.733Z,46.36
2023-03-21T01:38:58.499Z,46.37
2023-03-21T01:41:42.516Z,45.91
2023-03-21T01:44:20.017Z,46.17
2023-03-21T01:47:00.368Z,45.56
2023-03-21T01:49:41.024Z,44.97
2023-03-21T01:52:23.657Z,45.00
2023-03-21T01:54:57.644Z,45.21
2023-03-21T01:57:42.443Z,45.10
2023-03-21T02:00:15.925Z,45.08
2023-03-21T02:03:19.047Z,45.77
2023-03-21T02:06:00.559Z,46.18
2023-03-21T02:08:38.832Z,45.97
2023-03-21T02:11:07.157Z,46.08
2023-03-21T02:13:33.795Z,46.12
2023-03-21T02:16:06.796Z,46.30
2023-03-21T02:18:33.322Z,46.62
2023-03-21T02:21:18.071Z,46.71
2023-03-21T02:24:14.960Z,47.07
2023-03-21T02:27:06.610Z,46.97
2023-03-21T02:29:48.039Z,46.82
2023-03-21T02:32:48.788Z,46.85
2023-03-21T02:35:18.278Z,47.00
2023-03-21T02:38:00.826Z,46.97
2023-03-21T02:41:03.444Z,47.69
2023-03-21T02:43:44.002Z,47.59
2023-03-21T02:46:17.329Z,47.89
2023-03-21T02:48:52.962Z,47.72
2023-03-21T02:51:23.619Z,47.70
2023-03-21T02:54:24.585Z,47.95
2023-03-21T02:56:49.166Z,48.66
2023-03-21T02:59:17.914Z,49.03
2023-03-21T03:01:44.664Z,48.79
2023-03-21T03:04:37.353Z,48.95
2023-03-21T03:07:43.527Z,48.88
2023-03-21T03:10:24.994Z,48.92
2023-03-21T03:13:25.879Z,48.88
2023-03-21T03:16:30.669Z,49.18
2023-03-21T03:19:00.911Z,49.13
2023-03-21T03:21:45.165Z,48.79
2023-03-21T03:24:27.666Z,48.62
2023-03-21T03:26:59.913Z,48.65
2023-03-21T03:29:28.807Z,48.47
2023-03-21T03:32:17.483Z,48.96
2023-03-21T03:34:50.845Z,48.96
2023-03-21T03:37:21.867Z,48.44
2023-03-21T03:39:57.310Z,48.52
2023-03-21T03:42:40.818Z,48.62
2023-03-21T03:45:09.492Z,48.58
2023-03-21T03:47:57.174Z,48.61
2023-03-21T03:50:29.518Z,48.50
2023-03-21T03:53:09.909Z,48.40
2023-03-21T03:55:44.463Z,48.38
2023-03-21T03:58:21.618Z,48.32
2023-03-21T04:00:51.927Z,48.07
2023-03-21T04:03:18.799Z,48.16
2023-03-21T04:05:48.227Z,48.60
2023-03-21T04:08:15.907Z,48.48
2023-03-21T04:10:43.405Z,49.32
2023-03-21T04:13:10.660Z,49.45
2023-03-21T04:15:37.909Z,49.19
2023-03-21T04:18:04.652Z,49.00
2023-03-21T04:20:36.886Z,49.08
2023-03-21T04:23:04.484Z,49.30
2023-03-21T04:25:38.721Z,50.00
2023-03-21T04:28:07.089Z,50.66
2023-03-21T04:30:34.332Z,50.18
2023-03-21T04:33:01.331Z,49.92
2023-03-21T04:35:28.523Z,50.17
2023-03-21T04:37:55.891Z,49.93
2023-03-21T04:40:22.872Z,50.01
2023-03-21T04:42:49.690Z,50.08
2023-03-21T04:45:17.268Z,50.31
2023-03-21T04:47:43.974Z,49.97
2023-03-21T04:50:11.651Z,50.09
2023-03-21T04:52:38.553Z,50.10
2023-03-21T04:55:05.881Z,49.91
2023-03-21T04:57:32.459Z,49.72
2023-03-21T04:59:59.017Z,49.67
2023-03-21T05:02:25.728Z,49.59
2023-03-21T05:04:52.529Z,49.61
2023-03-21T05:07:19.260Z,49.46
2023-03-21T05:09:46.391Z,49.57
2023-03-21T05:12:13.013Z,49.61
2023-03-21T05:14:39.641Z,49.76
2023-03-21T05:17:06.312Z,49.67
2023-03-21T05:19:36.355Z,49.75
2023-03-21T05:22:06.025Z,49.67
2023-03-21T05:24:33.994Z,49.27
2023-03-21T05:27:02.825Z,49.38
2023-03-21T05:29:33.682Z,49.20
2023-03-21T05:32:01.752Z,49.00
2023-03-21T05:34:29.197Z,49.00
2023-03-21T05:36:56.335Z,49.02
2023-03-21T05:39:23.071Z,48.84
2023-03-21T05:41:49.687Z,48.93
2023-03-21T05:44:16.238Z,48.55
2023-03-21T05:46:43.434Z,48.76
2023-03-21T05:49:11.505Z,49.48
2023-03-21T05:51:38.217Z,49.47
2023-03-21T05:54:04.999Z,50.20
2023-03-21T05:56:31.657Z,50.02
2023-03-21T05:58:58.257Z,50.05
2023-03-21T06:01:24.894Z,49.85
2023-03-21T06:03:51.732Z,49.98
2023-03-21T06:06:18.418Z,49.60
2023-03-21T06:08:46.513Z,49.17
2023-03-21T06:11:23.594Z,49.20
2023-03-21T06:13:50.478Z,49.50
2023-03-21T06:16:17.170Z,50.02
2023-03-21T06:18:43.816Z,50.67
2023-03-21T06:21:10.610Z,51.32
2023-03-21T06:23:37.453Z,51.07
2023-03-21T06:26:04.690Z,51.32
2023-03-21T06:28:31.928Z,49.73
2023-03-21T06:30:58.679Z,48.68
2023-03-21T06:33:25.947Z,47.62
2023-03-21T06:35:58.517Z,46.78
2023-03-21T06:38:26.325Z,48.09
2023-03-21T06:40:52.938Z,47.50
2023-03-21T06:43:19.524Z,47.95
2023-03-21T06:45:46.158Z,49.79
2023-03-21T06:48:12.943Z,49.77
2023-03-21T06:50:39.603Z,49.35
2023-03-21T06:53:06.615Z,48.16
2023-03-21T06:55:33.335Z,46.92
2023-03-21T06:57:59.982Z,46.71
2023-03-21T07:00:26.946Z,47.57
2023-03-21T07:02:54.020Z,47.05
2023-03-21T07:05:20.718Z,46.21
2023-03-21T07:07:48.785Z,46.05
2023-03-21T07:10:15.550Z,46.00
2023-03-21T07:12:42.348Z,45.45
2023-03-21T07:15:10.011Z,45.07
2023-03-21T07:17:37.141Z,44.72
2023-03-21T07:20:08.002Z,45.23
2023-03-21T07:22:36.047Z,44.80
2023-03-21T07:25:05.461Z,44.89
2023-03-21T07:27:32.579Z,44.18
2023-03-21T07:29:59.308Z,44.14
2023-03-21T07:32:30.018Z,43.54
2023-03-21T07:34:56.773Z,43.99
2023-03-21T07:37:24.075Z,43.79
2023-03-21T07:39:51.498Z,42.79
2023-03-21T07:42:18.547Z,43.63
2023-03-21T07:44:45.249Z,43.85
2023-03-21T07:47:11.927Z,43.12
2023-03-21T07:49:38.728Z,43.51
2023-03-21T07:52:07.844Z,42.96
2023-03-21T07:54:34.494Z,43.66
2023-03-21T07:57:01.101Z,43.19
2023-03-21T07:59:27.914Z,42.40
2023-03-21T08:01:54.695Z,41.99
2023-03-21T08:04:22.558Z,41.96
2023-03-21T08:06:51.151Z,41.24
2023-03-21T08:09:17.776Z,41.16
2023-03-21T08:11:44.383Z,41.75
2023-03-21T08:14:10.996Z,41.53
2023-03-21T08:16:37.758Z,41.36
2023-03-21T08:19:04.416Z,41.22
2023-03-21T08:21:31.169Z,40.31
2023-03-21T08:23:57.792Z,40.05
2023-03-21T08:26:25.827Z,40.07
2023-03-21T08:28:52.724Z,39.34
2023-03-21T08:31:21.851Z,39.92
2023-03-21T08:33:53.844Z,39.42
2023-03-21T08:36:21.936Z,40.14
2023-03-21T08:38:48.651Z,39.42
2023-03-21T08:41:15.595Z,39.57
2023-03-21T08:43:42.205Z,39.50
2023-03-21T08:46:08.841Z,39.63
2023-03-21T08:48:38.829Z,39.49
2023-03-21T08:51:06.321Z,39.43
2023-03-21T08:53:33.870Z,38.55
2023-03-21T08:56:00.773Z,38.48
2023-03-21T08:58:27.432Z,38.59
2023-03-21T09:00:54.039Z,38.80
2023-03-21T09:03:20.713Z,38.30
2023-03-21T09:05:48.468Z,37.77
2023-03-21T09:08:15.135Z,38.91
2023-03-21T09:10:41.796Z,38.91
2023-03-21T09:13:08.950Z,38.42
2023-03-21T09:15:35.663Z,38.01
2023-03-21T09:18:13.467Z,38.28
2023-03-21T09:20:43.210Z,38.13
2023-03-21T09:23:10.934Z,39.18
2023-03-21T09:25:38.591Z,39.99
2023-03-21T09:28:06.233Z,39.86
2023-03-21T09:30:35.764Z,39.33
2023-03-21T09:33:06.643Z,39.40
2023-03-21T09:35:33.207Z,38.93
2023-03-21T09:38:00.591Z,38.74
2023-03-21T09:40:48.901Z,39.08
2023-03-21T09:43:54.260Z,39.54
2023-03-21T09:46:52.145Z,40.18
2023-03-21T09:49:25.649Z,39.47
2023-03-21T09:51:56.602Z,39.09
2023-03-21T09:54:28.093Z,39.10
2023-03-21T09:56:58.926Z,39.56
2023-03-21T09:59:33.594Z,39.42
2023-03-21T10:02:02.213Z,40.49
2023-03-21T10:04:29.628Z,39.30
2023-03-21T10:07:02.239Z,39.27
2023-03-21T10:09:32.634Z,39.18
2023-03-21T10:12:07.420Z,38.34
2023-03-21T10:14:45.560Z,39.64
2023-03-21T10:17:37.585Z,39.08
2023-03-21T10:20:26.157Z,38.38
2023-03-21T10:22:56.035Z,37.25
2023-03-21T10:25:37.551Z,37.21
2023-03-21T10:28:07.467Z,37.06
2023-03-21T10:30:51.306Z,36.10
2023-03-21T10:33:24.031Z,37.37
2023-03-21T10:35:55.602Z,36.99
2023-03-21T10:38:25.620Z,36.92
2023-03-21T10:40:52.603Z,37.08
2023-03-21T10:43:28.266Z,37.03
2023-03-21T10:45:56.393Z,36.75
2023-03-21T10:48:24.229Z,36.35
2023-03-21T10:50:54.790Z,34.16
2023-03-21T10:53:38.420Z,35.78
2023-03-21T10:56:09.691Z,36.50
2023-03-21T10:58:42.799Z,35.54
2023-03-21T11:01:15.183Z,35.26
2023-03-21T11:03:46.991Z,34.94
2023-03-21T11:06:26.660Z,34.57
2023-03-21T11:09:02.264Z,34.33
2023-03-21T11:11:41.554Z,33.98
2023-03-21T11:14:40.676Z,34.55
2023-03-21T11:17:28.939Z,34.16
2023-03-21T11:20:01.890Z,33.45
2023-03-21T11:22:40.091Z,34.34
2023-03-21T11:25:12.150Z,34.18
2023-03-21T11:27:53.106Z,34.26
2023-03-21T11:30:28.081Z,34.70
2023-03-21T11:32:57.912Z,34.25
2023-03-21T11:35:39.471Z,34.17
2023-03-21T11:38:23.521Z,34.53
2023-03-21T11:40:58.534Z,34.22
2023-03-21T11:43:35.785Z,34.05
2023-03-21T11:46:05.543Z,33.59
2023-03-21T11:48:39.615Z,33.18
2023-03-21T11:51:27.299Z,33.27
2023-03-21T11:53:57.122Z,32.74
2023-03-21T11:56:32.217Z,33.30
2023-03-21T11:59:15.930Z,32.57
2023-03-21T12:02:00.250Z,32.26
2023-03-21T12:04:51.489Z,32.51
2023-03-21T12:07:30.229Z,31.91
2023-03-21T12:10:15.749Z,32.58
2023-03-21T12:12:50.454Z,32.41
2023-03-21T12:15:27.772Z,32.42
2023-03-21T12:17:57.157Z,31.91
2023-03-21T12:20:36.990Z,31.92
2023-03-21T12:23:30.897Z,32.65
2023-03-21T12:26:03.463Z,32.32
2023-03-21T12:28:54.762Z,31.77
2023-03-21T12:31:42.416Z,31.16
2023-03-21T12:34:40.125Z,32.81
2023-03-21T12:37:12.385Z,33.15
2023-03-21T12:39:44.921Z,32.11
2023-03-21T12:42:29.045Z,32.00
2023-03-21T12:45:24.730Z,32.42
2023-03-21T12:48:17.896Z,31.53
2023-03-21T12:50:47.173Z,31.23
2023-03-21T12:54:03.971Z,31.13
2023-03-21T12:56:39.667Z,31.55
2023-03-21T12:59:28.221Z,31.62
2023-03-21T13:01:59.728Z,31.47
2023-03-21T13:04:54.224Z,31.60
2023-03-21T13:07:25.354Z,30.87
2023-03-21T13:09:55.036Z,31.02
2023-03-21T13:12:41.600Z,30.97
2023-03-21T13:15:15.360Z,31.26
2023-03-21T13:17:59.360Z,30.98
2023-03-21T13:20:35.762Z,30.92
2023-03-21T13:23:03.683Z,30.05
2023-03-21T13:25:33.340Z,30.39
2023-03-21T13:28:05.857Z,31.30
2023-03-21T13:30:33.204Z,32.35
2023-03-21T13:33:29.287Z,31.30
2023-03-21T13:36:05.542Z,31.07
2023-03-21T13:38:34.669Z,31.19
2023-03-21T13:41:08.787Z,32.13
2023-03-21T13:44:04.751Z,31.68
2023-03-21T13:46:40.661Z,31.78
2023-03-21T13:49:29.087Z,31.39
2023-03-21T13:51:58.507Z,31.59
2023-03-21T13:54:54.301Z,31.36
2023-03-21T13:57:41.103Z,31.34
2023-03-21T14:00:30.440Z,31.16
2023-03-21T14:03:13.671Z,31.41
2023-03-21T14:05:40.849Z,31.53
2023-03-21T14:08:17.223Z,31.62
2023-03-21T14:10:56.118Z,32.44
2023-03-21T14:13:25.991Z,33.00
2023-03-21T14:15:56.688Z,32.79
2023-03-21T14:18:51.769Z,32.62
2023-03-21T14:21:23.707Z,33.12
2023-03-21T14:23:58.609Z,33.75
2023-03-21T14:26:28.901Z,33.57
2023-03-21T14:28:55.732Z,33.23
2023-03-21T14:31:22.629Z,33.46
2023-03-21T14:33:56.154Z,33.73
2023-03-21T14:36:28.690Z,34.30
2023-03-21T14:39:10.436Z,33.69
2023-03-21T14:41:54.468Z,34.05
2023-03-21T14:44:27.750Z,34.65
2023-03-21T14:47:03.444Z,34.87
2023-03-21T14:49:33.009Z,36.41
2023-03-21T14:52:06.830Z,38.14
2023-03-21T14:54:34.238Z,40.38
2023-03-21T14:57:07.889Z,41.84
2023-03-21T14:59:40.430Z,42.65
2023-03-21T15:02:23.549Z,43.48
2023-03-21T15:04:53.508Z,42.17
2023-03-21T15:07:26.968Z,42.13
2023-03-21T15:10:06.353Z,42.16
2023-03-21T15:12:33.658Z,42.25
2023-03-21T15:15:01.924Z,42.72
2023-03-21T15:17:29.220Z,42.38
2023-03-21T15:19:55.842Z,43.23
2023-03-21T15:22:40.368Z,43.65
2023-03-21T15:25:14.147Z,45.67
2023-03-21T15:27:43.290Z,48.21
2023-03-21T15:30:47.196Z,48.35
2023-03-21T15:33:15.025Z,49.86
2023-03-21T15:35:46.070Z,51.37
2023-03-21T15:38:34.371Z,52.20
2023-03-21T15:41:19.853Z,53.54
2023-03-21T15:44:00.155Z,53.32
2023-03-21T15:46:46.586Z,56.53
2023-03-21T15:49:13.175Z,57.71
2023-03-21T15:51:43.467Z,58.05
2023-03-21T15:54:24.856Z,57.41
2023-03-21T15:56:57.509Z,57.87
2023-03-21T15:59:27.612Z,59.19
2023-03-21T16:01:54.344Z,59.55
2023-03-21T16:04:23.704Z,61.79
2023-03-21T16:07:15.432Z,64.73
2023-03-21T16:09:46.443Z,67.42
2023-03-21T16:12:15.380Z,64.92
2023-03-21T16:14:43.186Z,63.76
2023-03-21T16:17:36.667Z,63.93
2023-03-21T16:20:13.840Z,63.83
2023-03-21T16:22:40.470Z,63.97
2023-03-21T16:25:07.422Z,64.49
2023-03-21T16:27:34.189Z,66.08
2023-03-21T16:30:02.224Z,66.46
2023-03-21T16:32:28.937Z,66.58
2023-03-21T16:34:56.145Z,66.52
2023-03-21T16:37:22.824Z,68.23
2023-03-21T16:39:49.603Z,68.06
2023-03-21T16:42:16.237Z,67.89
2023-03-21T16:44:42.845Z,69.31
2023-03-21T16:47:19.122Z,69.38
2023-03-21T16:49:46.494Z,72.10
2023-03-21T16:52:14.168Z,72.84
2023-03-21T16:54:41.483Z,70.90
2023-03-21T16:57:19.633Z,71.09
2023-03-21T16:59:46.576Z,69.90
2023-03-21T17:02:16.613Z,68.96
2023-03-21T17:04:44.675Z,67.95
2023-03-21T17:07:16.313Z,70.73
2023-03-21T17:09:46.871Z,71.57
2023-03-21T17:12:15.727Z,72.54
2023-03-21T17:14:43.786Z,71.67
2023-03-21T17:17:15.539Z,70.84
2023-03-21T17:19:42.741Z,69.58
2023-03-21T17:22:11.391Z,68.66
2023-03-21T17:24:39.954Z,68.07
2023-03-21T17:27:08.545Z,67.36
2023-03-21T17:29:35.448Z,67.79
2023-03-21T17:32:02.176Z,67.83
2023-03-21T17:34:28.753Z,67.46
2023-03-21T17:36:55.567Z,67.08
2023-03-21T17:39:25.809Z,66.62
2023-03-21T17:41:52.915Z,66.71
2023-03-21T17:44:21.502Z,66.63
2023-03-21T17:46:51.172Z,66.72
2023-03-21T17:49:18.818Z,65.81
2023-03-21T17:51:47.169Z,66.59
2023-03-21T17:54:13.923Z,67.71
2023-03-21T17:56:41.805Z,68.80
2023-03-21T17:59:12.621Z,68.89
2023-03-21T18:01:39.461Z,68.49
2023-03-21T18:04:06.276Z,66.30
2023-03-21T18:06:34.692Z,66.38
2023-03-21T18:09:07.171Z,67.38
2023-03-21T18:11:34.083Z,66.78
2023-03-21T18:14:15.008Z,66.78
2023-03-21T18:16:42.906Z,66.26
2023-03-21T18:19:11.016Z,65.72
2023-03-21T18:21:40.569Z,66.92
2023-03-21T18:24:07.673Z,67.35
2023-03-21T18:26:34.293Z,68.52
2023-03-21T18:29:57.029Z,68.26
2023-03-21T18:32:04.339Z,68.21
2023-03-21T18:34:32.088Z,69.31
2023-03-21T18:36:58.682Z,69.71
2023-03-21T18:39:25.713Z,69.61
2023-03-21T18:41:57.810Z,70.42
2023-03-21T18:44:25.702Z,70.78
2023-03-21T18:46:52.694Z,69.36
2023-03-21T18:52:06.776Z,71.91
2023-03-21T18:54:33.970Z,70.72
2023-03-21T18:59:47.760Z,69.34
2023-03-21T19:02:15.921Z,69.06
2023-03-21T19:04:43.579Z,71.94
2023-03-21T19:07:10.866Z,71.10
2023-03-21T19:10:13.966Z,70.67
2023-03-21T19:12:25.931Z,70.20
2023-03-21T19:14:52.595Z,69.09
2023-03-21T19:20:06.820Z,68.24
2023-03-21T19:22:33.440Z,69.18
2023-03-21T19:25:00.098Z,69.09
2023-03-21T19:27:27.270Z,68.95
2023-03-21T19:30:10.831Z,70.96
2023-03-21T19:32:40.021Z,70.65
2023-03-21T19:35:07.460Z,70.30
2023-03-21T19:37:36.259Z,70.97
2023-03-21T19:40:05.511Z,70.60
2023-03-21T19:42:32.595Z,69.29
2023-03-21T19:44:59.465Z,68.17
2023-03-21T19:47:26.430Z,68.10
2023-03-21T19:52:40.859Z,68.47
2023-03-21T19:55:08.380Z,67.61
2023-03-21T19:57:35.349Z,70.58
2023-03-21T20:00:02.438Z,70.40
2023-03-21T20:02:37.109Z,69.59
2023-03-21T20:05:06.856Z,67.96
2023-03-21T20:07:33.563Z,68.29
2023-03-21T20:10:00.362Z,68.40
2023-03-21T20:12:27.678Z,69.10
2023-03-21T20:15:07.184Z,69.38
2023-03-21T20:17:41.700Z,73.22
2023-03-21T20:20:14.876Z,75.62
2023-03-21T20:23:05.563Z,76.90
2023-03-21T20:25:29.514Z,76.27
2023-03-21T20:28:12.752Z,73.82
2023-03-21T20:30:54.186Z,72.39
2023-03-21T20:33:20.922Z,72.03
2023-03-21T20:38:36.026Z,71.81
2023-03-21T20:41:04.906Z,70.96
2023-03-21T20:46:18.618Z,69.60
2023-03-21T20:48:48.839Z,69.14
2023-03-21T20:52:27.500Z,70.16
2023-03-21T20:54:02.341Z,70.01
2023-03-21T20:56:30.511Z,70.89
2023-03-21T20:59:12.162Z,69.68
2023-03-21T21:01:43.364Z,70.68
2023-03-21T21:04:10.310Z,70.25
2023-03-21T21:06:37.078Z,72.95
2023-03-21T21:09:04.251Z,73.66
2023-03-21T21:14:17.726Z,70.97
2023-03-21T21:16:44.965Z,71.53
2023-03-21T21:19:11.646Z,70.25
2023-03-21T21:21:38.670Z,73.40
2023-03-21T21:24:07.684Z,73.84
2023-03-21T21:26:34.933Z,73.47
2023-03-21T21:29:01.814Z,72.04
2023-03-21T21:31:28.698Z,71.07
2023-03-21T21:33:55.463Z,70.51
2023-03-21T21:36:22.779Z,71.31
2023-03-21T21:38:49.762Z,75.36
2023-03-21T21:41:21.336Z,79.19
2023-03-21T21:43:48.639Z,76.67
2023-03-21T21:46:15.785Z,78.17
2023-03-21T21:48:43.314Z,76.67
2023-03-21T21:51:10.591Z,75.31
2023-03-21T21:53:38.886Z,75.82
2023-03-21T21:56:06.697Z,74.48
2023-03-21T21:58:53.826Z,75.70
2023-03-21T22:01:23.566Z,80.40
2023-03-21T22:03:51.685Z,78.75
2023-03-21T22:06:18.275Z,80.08
2023-03-21T22:08:47.152Z,77.98
2023-03-21T22:11:15.062Z,75.82
2023-03-21T22:13:43.575Z,75.22
2023-03-21T22:16:11.016Z,75.71
2023-03-21T22:18:38.611Z,77.40
2023-03-21T22:21:06.392Z,74.98
2023-03-21T22:23:33.231Z,75.06
2023-03-21T22:26:00.197Z,74.63
2023-03-21T22:28:27.183Z,74.51
2023-03-21T22:30:57.176Z,74.79
2023-03-21T22:33:23.982Z,74.36
2023-03-21T22:35:51.747Z,76.86
2023-03-21T22:38:24.296Z,76.25
2023-03-21T22:40:55.909Z,78.09
2023-03-21T22:43:22.681Z,76.55
2023-03-21T22:45:49.754Z,75.92
2023-03-21T22:48:17.198Z,74.88
2023-03-21T22:50:44.077Z,71.84
2023-03-21T22:53:10.748Z,71.57
2023-03-21T22:55:38.042Z,71.29
2023-03-21T22:58:04.909Z,72.10
2023-03-21T23:00:32.762Z,72.26
2023-03-21T23:03:00.108Z,71.87
2023-03-21T23:05:26.912Z,73.32
2023-03-21T23:07:53.887Z,72.96
2023-03-21T23:10:20.655Z,72.81
2023-03-21T23:12:47.376Z,72.83
2023-03-21T23:15:14.236Z,72.61
2023-03-21T23:17:41.351Z,72.25
2023-03-21T23:20:11.097Z,72.55
2023-03-21T23:22:37.937Z,73.48
2023-03-21T23:25:05.459Z,74.19
2023-03-21T23:27:32.236Z,74.10
2023-03-21T23:29:58.931Z,73.88
2023-03-21T23:32:26.008Z,74.05
2023-03-21T23:34:55.307Z,72.52
2023-03-21T23:37:21.893Z,72.25
2023-03-21T23:39:52.596Z,72.11
2023-03-21T23:42:19.221Z,71.53
2023-03-21T23:44:45.990Z,71.09
2023-03-21T23:47:12.658Z,71.66
2023-03-21T23:49:40.801Z,72.14
2023-03-21T23:52:07.456Z,72.49
2023-03-21T23:54:34.086Z,72.19
2023-03-21T23:57:00.809Z,72.14
2023-03-21T23:59:27.701Z,72.30
